Time;durP1;ratioP1;P1;durP2;ratioP2;P2;SDS_P1;SDS_P2;PMS_P1;PMS_P2;Temp;Humidity;BMP_temperature;BMP_pressure;BME280_temperature;BME280_humidity;BME280_pressure;Samples;Min_cycle;Max_cycle;Signal;HPM_P1;HPM_P2
2023/10/28 00:01:41;;;;;;;19.73;12.27;;;;;;;;;;4919620;29;20035;-73
2023/10/28 00:04:08;;;;;;;17.95;11.32;;;;;;;;;;4919229;29;20039;-73
2023/10/28 00:06:34;;;;;;;17.67;10.90;;;;;;;;;;4882371;29;20032;-73
2023/10/28 00:09:01;;;;;;;18.02;12.27;;;;;;;;;;4919584;29;20059;-73
2023/10/28 00:11:27;;;;;;;19.00;11.85;;;;;;;;;;4919929;29;20043;-73
2023/10/28 00:13:53;;;;;;;19.35;12.70;;;;;;;;;;4895752;29;20099;-73
2023/10/28 00:16:19;;;;;;;21.60;12.93;;;;;;;;;;4919354;29;20051;-73
2023/10/28 00:18:46;;;;;;;23.02;14.10;;;;;;;;;;4919535;29;20047;-73
2023/10/28 00:21:12;;;;;;;26.00;15.45;;;;;;;;;;4936663;29;20396;-73
2023/10/28 00:23:38;;;;;;;21.85;14.05;;;;;;;;;;4919997;29;20036;-73
2023/10/28 00:26:05;;;;;;;22.35;13.82;;;;;;;;;;4919583;29;20123;-73
2023/10/28 00:28:34;;;;;;;20.88;13.95;;;;;;;;;;4919312;29;20419;-75
2023/10/28 00:31:02;;;;;;;26.90;15.85;;;;;;;;;;4919264;29;20503;-73
2023/10/28 00:33:28;;;;;;;24.33;14.65;;;;;;;;;;4903342;29;20047;-73
2023/10/28 00:35:54;;;;;;;26.48;15.68;;;;;;;;;;4903992;29;20425;-73
2023/10/28 00:38:22;;;;;;;27.70;17.25;;;;;;;;;;4903598;29;20048;-73
2023/10/28 00:40:48;;;;;;;28.77;16.65;;;;;;;;;;4919483;29;20046;-75
2023/10/28 00:43:14;;;;;;;29.02;17.02;;;;;;;;;;4903321;29;20027;-73
2023/10/28 00:45:40;;;;;;;28.88;17.30;;;10.70;99.90;;;;;;4918869;29;20512;-73
2023/10/28 00:48:07;;;;;;;29.05;17.65;;;;;;;;;;4904261;29;20138;-72
2023/10/28 00:50:33;;;;;;;29.42;16.42;;;;;;;;;;4902838;29;20047;-73
2023/10/28 00:52:59;;;;;;;30.13;16.42;;;;;;;;;;4918865;29;20032;-72
2023/10/28 00:55:29;;;;;;;29.40;17.27;;;10.50;99.90;;;;;;4919485;29;20035;-72
2023/10/28 00:57:56;;;;;;;29.35;17.80;;;;;;;;;;4903856;29;20103;-72
2023/10/28 01:00:22;;;;;;;29.58;17.95;;;;;;;;;;4918821;29;20039;-73
2023/10/28 01:02:48;;;;;;;28.70;17.88;;;;;;;;;;4918740;29;20031;-73
2023/10/28 01:05:16;;;;;;;31.83;18.60;;;;;;;;;;4918785;29;20055;-72
2023/10/28 01:07:46;;;;;;;33.15;18.48;;;10.40;99.90;;;;;;4918442;29;20044;-72
2023/10/28 01:10:13;;;;;;;29.75;17.58;;;;;;;;;;4918705;29;20040;-72
2023/10/28 01:12:39;;;;;;;32.38;17.30;;;;;;;;;;4918834;29;20048;-72
2023/10/28 01:15:05;;;;;;;31.63;18.48;;;;;;;;;;4902775;29;20110;-72
2023/10/28 01:17:32;;;;;;;31.40;16.83;;;;;;;;;;4918508;29;20502;-72
2023/10/28 01:19:58;;;;;;;30.92;18.25;;;;;;;;;;4918296;29;20346;-73
2023/10/28 01:22:24;;;;;;;39.17;19.88;;;;;;;;;;4918656;29;20035;-72
2023/10/28 01:24:51;;;;;;;30.80;17.70;;;;;;;;;;4915853;29;20040;-73
2023/10/28 01:27:18;;;;;;;32.38;19.23;;;;;;;;;;4902235;29;20062;-72
2023/10/28 01:29:45;;;;;;;30.77;18.50;;;;;;;;;;4918179;29;20051;-72
2023/10/28 01:32:11;;;;;;;32.80;18.25;;;;;;;;;;4918085;29;20052;-72
2023/10/28 01:34:50;;;;;;;33.20;18.45;;;10.50;99.90;;;;;;4917764;29;20042;-73
2023/10/28 01:37:17;;;;;;;35.65;19.23;;;;;;;;;;4902631;29;20501;-72
2023/10/28 01:39:48;;;;;;;28.42;17.77;;;;;;;;;;4917908;29;20480;-72
2023/10/28 01:42:14;;;;;;;32.20;18.02;;;;;;;;;;4918261;29;20439;-76
2023/10/28 01:44:41;;;;;;;31.25;18.42;;;;;;;;;;4902264;29;20102;-76
2023/10/28 01:47:08;;;;;;;33.38;19.00;;;;;;;;;;4917909;29;20048;-76
2023/10/28 01:49:37;;;;;;;33.30;19.15;;;;;;;;;;4918114;29;20425;-76
2023/10/28 01:52:07;;;;;;;30.80;18.58;;;;;;;;;;4917764;29;20039;-76
2023/10/28 01:54:33;;;;;;;33.03;19.10;;;;;;;;;;4917624;29;20054;-76
2023/10/28 01:57:01;;;;;;;30.33;18.00;;;;;;;;;;4918170;29;20051;-76
2023/10/28 01:59:27;;;;;;;30.25;17.35;;;;;;;;;;4917599;29;20050;-73
2023/10/28 02:01:54;;;;;;;32.08;18.48;;;;;;;;;;4917750;29;20059;-72
2023/10/28 02:04:20;;;;;;;36.00;18.92;;;;;;;;;;4917476;29;20036;-72
2023/10/28 02:06:49;;;;;;;34.53;18.33;;;;;;;;;;4917438;29;20032;-73
2023/10/28 02:09:15;;;;;;;35.53;18.65;;;;;;;;;;4917682;29;20043;-74
2023/10/28 02:11:42;;;;;;;30.45;17.70;;;;;;;;;;4917288;29;20043;-73
2023/10/28 02:14:09;;;;;;;29.20;17.02;;;;;;;;;;4917580;29;20044;-76
2023/10/28 02:16:38;;;;;;;33.38;17.98;;;;;;;;;;4887339;29;20059;-78
2023/10/28 02:19:05;;;;;;;35.65;17.52;;;10.30;99.90;;;;;;4915200;29;20127;-77
2023/10/28 02:21:31;;;;;;;27.85;17.02;;;;;;;;;;4917249;29;20036;-77
2023/10/28 02:23:58;;;;;;;31.98;17.40;;;;;;;;;;4917786;29;20045;-76
2023/10/28 02:26:24;;;;;;;29.27;17.60;;;;;;;;;;4917307;29;20043;-76
2023/10/28 02:28:50;;;;;;;35.83;17.33;;;;;;;;;;4917189;29;20040;-77
2023/10/28 02:31:16;;;;;;;36.38;17.75;;;;;;;;;;4917172;29;20122;-77
2023/10/28 02:33:42;;;;;;;30.27;16.38;;;;;;;;;;4872871;29;20397;-77
2023/10/28 02:36:08;;;;;;;29.13;15.77;;;;;;;;;;4917102;29;20035;-76
2023/10/28 02:38:35;;;;;;;27.60;16.40;;;;;;;;;;4917142;29;20040;-77
2023/10/28 02:41:01;;;;;;;29.45;17.38;;;;;;;;;;4894245;29;20044;-76
2023/10/28 02:43:27;;;;;;;29.55;16.42;;;;;;;;;;4917641;29;20036;-77
2023/10/28 02:45:53;;;;;;;30.50;15.27;;;;;;;;;;4917204;29;20051;-77
2023/10/28 02:48:19;;;;;;;27.13;15.75;;;;;;;;;;4916505;29;20138;-77
2023/10/28 02:50:45;;;;;;;29.08;15.75;;;;;;;;;;4917420;29;20028;-77
2023/10/28 02:53:12;;;;;;;29.65;15.05;;;;;;;;;;4901480;29;20504;-78
2023/10/28 02:55:38;;;;;;;24.55;14.73;;;;;;;;;;4901709;29;20115;-77
2023/10/28 02:58:04;;;;;;;26.45;14.45;;;;;;;;;;4916923;29;20527;-77
2023/10/28 03:00:30;;;;;;;25.55;15.18;;;;;;;;;;4917178;29;20061;-77
2023/10/28 03:02:57;;;;;;;28.35;15.10;;;;;;;;;;4916972;29;20122;-77
2023/10/28 03:05:24;;;;;;;26.52;14.88;;;;;;;;;;4886736;29;20091;-77
2023/10/28 03:07:53;;;;;;;26.10;14.70;;;;;;;;;;4901408;29;20040;-77
2023/10/28 03:10:20;;;;;;;25.02;14.57;;;;;;;;;;4916819;29;20530;-76
2023/10/28 03:12:47;;;;;;;26.20;14.32;;;;;;;;;;4918597;29;20051;-77
2023/10/28 03:15:13;;;;;;;23.05;14.07;;;;;;;;;;4917557;29;20102;-77
2023/10/28 03:17:39;;;;;;;22.38;14.38;;;;;;;;;;4917223;29;20040;-76
2023/10/28 03:20:10;;;;;;;25.98;14.13;;;;;;;;;;4901575;29;20082;-73
2023/10/28 03:22:37;;;;;;;24.83;13.98;;;;;;;;;;4917008;29;20094;-73
2023/10/28 03:25:03;;;;;;;21.38;13.63;;;;;;;;;;4916921;29;20074;-73
2023/10/28 03:27:30;;;;;;;25.13;14.60;;;;;;;;;;4916932;29;20038;-73
2023/10/28 03:29:56;;;;;;;27.35;13.85;;;;;;;;;;4916355;29;20050;-73
2023/10/28 03:32:22;;;;;;;22.33;12.55;;;;;;;;;;4917221;29;20036;-74
2023/10/28 03:34:49;;;;;;;21.30;12.98;;;;;;;;;;4916843;29;20035;-73
2023/10/28 03:37:15;;;;;;;25.05;13.60;;;;;;;;;;4901120;29;20043;-76
2023/10/28 03:39:41;;;;;;;22.45;13.02;;;;;;;;;;4916661;29;20522;-76
2023/10/28 03:42:07;;;;;;;23.23;12.88;;;;;;;;;;4916475;29;20374;-76
2023/10/28 03:44:34;;;;;;;19.40;12.55;;;;;;;;;;4916697;29;20042;-76
2023/10/28 03:47:00;;;;;;;23.83;12.43;;;;;;;;;;4916547;29;20067;-76
2023/10/28 03:49:27;;;;;;;18.73;12.35;;;;;;;;;;4917999;29;20054;-76
2023/10/28 03:51:53;;;;;;;24.63;13.10;;;;;;;;;;4904834;29;20071;-78
2023/10/28 03:54:19;;;;;;;20.05;12.35;;;;;;;;;;4904269;29;20511;-77
2023/10/28 03:56:45;;;;;;;22.15;11.88;;;;;;;;;;4920152;29;20186;-76
2023/10/28 03:59:13;;;;;;;23.40;12.00;;;;;;;;;;4920213;29;20047;-76
2023/10/28 04:01:40;;;;;;;20.08;11.70;;;;;;;;;;4892437;29;20039;-76
2023/10/28 04:04:07;;;;;;;22.60;11.60;;;;;;;;;;4920196;29;20361;-76
2023/10/28 04:06:33;;;;;;;15.25;10.88;;;;;;;;;;4920193;29;20032;-74
2023/10/28 04:08:59;;;;;;;20.35;12.15;;;;;;;;;;4919404;29;20058;-76
2023/10/28 04:11:25;;;;;;;21.55;11.60;;;;;;;;;;4904020;29;20044;-76
2023/10/28 04:13:52;;;;;;;19.95;11.38;;;;;;;;;;4919557;29;20563;-77
2023/10/28 04:16:19;;;;;;;20.40;11.15;;;;;;;;;;4904026;29;20044;-76
2023/10/28 04:18:45;;;;;;;18.67;11.10;;;;;;;;;;4903601;29;20135;-76
2023/10/28 04:21:11;;;;;;;15.52;10.80;;;;;;;;;;4901333;29;20442;-77
2023/10/28 04:23:37;;;;;;;17.55;10.55;;;;;;;;;;4919904;29;20063;-76
2023/10/28 04:26:03;;;;;;;17.25;10.30;;;;;;;;;;4888302;29;20446;-73
2023/10/28 04:28:30;;;;;;;15.45;10.65;;;;;;;;;;4919096;29;20563;-73
2023/10/28 04:30:59;;;;;;;19.75;11.02;;;9.60;99.90;;;;;;4918990;29;20095;-73
2023/10/28 04:33:26;;;;;;;19.48;10.20;;;;;;;;;;4919553;29;20139;-73
2023/10/28 04:35:52;;;;;;;18.10;10.60;;;;;;;;;;4919512;29;20445;-73
2023/10/28 04:38:21;;;;;;;16.98;10.30;;;;;;;;;;4919028;29;20032;-74
2023/10/28 04:40:48;;;;;;;20.63;9.98;;;;;;;;;;4919211;29;20484;-76
2023/10/28 04:43:14;;;;;;;16.08;10.23;;;;;;;;;;4903253;29;20036;-76
2023/10/28 04:45:43;;;;;;;18.05;9.88;;;;;;;;;;4918816;29;20059;-76
2023/10/28 04:48:10;;;;;;;16.70;10.30;;;9.20;99.90;;;;;;4916842;29;20090;-76
2023/10/28 04:50:36;;;;;;;15.93;9.35;;;;;;;;;;4919301;29;20036;-76
2023/10/28 04:53:02;;;;;;;17.48;10.95;;;;;;;;;;4918741;29;20043;-76
2023/10/28 04:55:28;;;;;;;17.30;10.10;;;;;;;;;;4903083;29;20512;-76
2023/10/28 04:57:54;;;;;;;18.60;9.88;;;;;;;;;;4889514;29;20104;-77
2023/10/28 05:00:20;;;;;;;14.45;9.40;;;;;;;;;;4902154;29;20050;-76
2023/10/28 05:02:47;;;;;;;18.15;9.93;;;;;;;;;;4918804;29;20031;-77
2023/10/28 05:05:14;;;;;;;17.00;10.27;;;;;;;;;;4919125;29;20031;-76
2023/10/28 05:07:40;;;;;;;19.95;9.93;;;;;;;;;;4901795;29;20028;-77
2023/10/28 05:10:06;;;;;;;15.15;9.85;;;;;;;;;;4902919;29;20508;-76
2023/10/28 05:12:32;;;;;;;18.17;10.27;;;;;;;;;;4902925;29;20043;-76
2023/10/28 05:14:59;;;;;;;17.63;9.45;;;;;;;;;;4899870;29;20047;-76
2023/10/28 05:17:26;;;;;;;16.38;9.77;;;;;;;;;;4902644;29;20035;-76
2023/10/28 05:19:52;;;;;;;14.77;9.35;;;;;;;;;;4914925;29;20110;-76
2023/10/28 05:22:18;;;;;;;20.40;10.30;;;;;;;;;;4916131;29;20036;-77
2023/10/28 05:24:44;;;;;;;20.15;10.25;;;;;;;;;;4917528;29;20050;-77
2023/10/28 05:27:11;;;;;;;17.13;9.75;;;;;;;;;;4918144;29;20142;-77
2023/10/28 05:29:38;;;;;;;18.98;10.55;;;;;;;;;;4918001;29;20055;-76
2023/10/28 05:32:04;;;;;;;20.30;10.63;;;;;;;;;;4914619;29;20051;-76
2023/10/28 05:34:30;;;;;;;16.83;10.98;;;;;;;;;;4901478;29;20047;-76
2023/10/28 05:36:56;;;;;;;18.05;10.73;;;;;;;;;;4914924;29;20098;-76
2023/10/28 05:39:22;;;;;;;20.17;10.98;;;;;;;;;;4916904;29;20036;-76
2023/10/28 05:41:48;;;;;;;18.48;10.30;;;;;;;;;;4900249;29;20453;-75
2023/10/28 05:44:14;;;;;;;20.92;10.80;;;;;;;;;;4918890;29;20036;-76
2023/10/28 05:46:41;;;;;;;18.55;10.27;;;;;;;;;;4918550;29;20115;-76
2023/10/28 05:49:09;;;;;;;18.95;10.85;;;;;;;;;;4918688;29;20055;-76
2023/10/28 05:51:36;;;;;;;22.63;11.23;;;;;;;;;;4903684;29;20400;-76
2023/10/28 05:54:03;;;;;;;18.38;10.32;;;;;;;;;;4919079;29;20123;-75
2023/10/28 05:56:30;;;;;;;15.70;10.32;;;;;;;;;;4916183;29;20079;-75
2023/10/28 05:58:58;;;;;;;24.48;11.65;;;;;;;;;;4903059;29;20119;-76
2023/10/28 06:01:27;;;;;;;20.25;10.90;;;9.20;99.90;;;;;;4918532;29;20118;-77
2023/10/28 06:03:53;;;;;;;20.17;11.23;;;;;;;;;;4919187;29;20043;-76
2023/10/28 06:06:19;;;;;;;20.35;11.02;;;;;;;;;;4905960;29;20133;-76
2023/10/28 06:08:45;;;;;;;23.00;12.20;;;;;;;;;;4921488;29;20043;-77
2023/10/28 06:11:11;;;;;;;17.20;10.50;;;;;;;;;;4904956;29;20048;-77
2023/10/28 06:13:37;;;;;;;18.42;11.07;;;;;;;;;;4920288;29;20123;-77
2023/10/28 06:16:03;;;;;;;18.73;11.43;;;;;;;;;;4921019;29;20059;-77
2023/10/28 06:18:29;;;;;;;25.20;11.32;;;;;;;;;;4922065;29;20043;-77
2023/10/28 06:20:56;;;;;;;25.48;12.25;;;;;;;;;;4907698;29;20063;-76
2023/10/28 06:23:22;;;;;;;24.60;11.77;;;;;;;;;;4917813;29;20171;-76
2023/10/28 06:25:48;;;;;;;24.30;12.40;;;;;;;;;;4917712;29;20152;-74
2023/10/28 06:28:14;;;;;;;25.30;12.00;;;;;;;;;;4918426;29;20074;-73
2023/10/28 06:30:58;;;;;;;19.58;10.93;;;;;;;;;;4919107;29;20122;-73
2023/10/28 06:33:25;;;;;;;22.70;12.00;;;;;;;;;;4918632;29;20036;-74
2023/10/28 06:35:51;;;;;;;22.27;11.68;;;;;;;;;;4919107;29;20050;-73
2023/10/28 06:38:19;;;;;;;26.00;12.40;;;;;;;;;;4904998;29;20147;-73
2023/10/28 06:40:48;;;;;;;28.40;12.07;;;;;;;;;;4904584;29;20051;-76
2023/10/28 06:43:15;;;;;;;24.23;13.05;;;;;;;;;;4922908;29;20039;-76
2023/10/28 06:45:42;;;;;;;23.48;11.68;;;;;;;;;;4919176;29;20044;-77
2023/10/28 06:48:09;;;;;;;19.50;11.27;;;;;;;;;;4918810;29;20488;-76
2023/10/28 06:50:35;;;;;;;23.63;12.48;;;;;;;;;;4919883;29;20126;-75
2023/10/28 06:53:02;;;;;;;24.48;11.57;;;;;;;;;;4919493;29;20055;-75
2023/10/28 06:55:28;;;;;;;20.05;11.10;;;;;;;;;;4905366;29;20043;-75
2023/10/28 06:57:55;;;;;;;21.38;11.32;;;9.50;99.90;;;;;;4920713;29;20054;-73
2023/10/28 07:00:27;;;;;;;19.40;11.40;;;;;;;;;;4918325;29;20051;-76
2023/10/28 07:02:53;;;;;;;19.42;11.00;;;;;;;;;;4917763;29;20418;-76
2023/10/28 07:05:19;;;;;;;23.65;12.27;;;;;;;;;;4915637;29;20111;-76
2023/10/28 07:07:45;;;;;;;23.83;11.85;;;;;;;;;;4918402;29;20504;-76
2023/10/28 07:10:14;;;;;;;37.50;25.85;;;;;;;;;;4917561;29;20040;-76
2023/10/28 07:12:44;;;;;;;18.92;10.98;;;;;;;;;;4917199;29;20052;-76
2023/10/28 07:15:13;;;;;;;22.40;11.88;;;;;;;;;;4922224;29;20044;-76
2023/10/28 07:17:39;;;;;;;18.85;10.52;;;;;;;;;;4917976;29;20044;-69
2023/10/28 07:20:07;;;;;;;20.27;10.23;;;;;;;;;;4919445;29;20401;-77
2023/10/28 07:22:34;;;;;;;21.98;10.25;;;;;;;;;;4900353;29;20107;-76
2023/10/28 07:25:01;;;;;;;19.88;10.75;;;;;;;;;;4921833;29;20086;-76
2023/10/28 07:27:27;;;;;;;17.73;9.70;;;;;;;;;;4907101;29;20087;-76
2023/10/28 07:29:53;;;;;;;15.40;9.88;;;;;;;;;;4924418;29;20040;-76
2023/10/28 07:32:19;;;;;;;15.30;9.43;;;;;;;;;;4922053;29;20054;-76
2023/10/28 07:34:45;;;;;;;14.93;9.55;;;;;;;;;;4921944;29;20400;-76
2023/10/28 07:37:13;;;;;;;17.08;9.82;;;;;;;;;;4922682;29;20059;-76
2023/10/28 07:39:41;;;;;;;17.70;9.23;;;;;;;;;;4920468;29;20050;-72
2023/10/28 07:42:07;;;;;;;16.23;9.13;;;;;;;;;;4918660;29;20047;-72
2023/10/28 07:44:33;;;;;;;17.85;10.57;;;;;;;;;;4937239;29;20114;-72
2023/10/28 07:47:00;;;;;;;17.50;8.25;;;;;;;;;;4905063;29;20048;-72
2023/10/28 07:49:27;;;;;;;35.15;19.83;;;;;;;;;;4904355;29;20507;-73
2023/10/28 07:51:54;;;;;;;16.63;10.05;;;;;;;;;;4905404;29;20075;-72
2023/10/28 07:54:20;;;;;;;14.85;8.77;;;;;;;;;;4920191;29;20094;-72
2023/10/28 07:56:46;;;;;;;18.95;8.25;;;;;;;;;;4924074;29;20122;-72
2023/10/28 07:59:13;;;;;;;17.70;8.45;;;;;;;;;;4922113;29;20050;-72
2023/10/28 08:01:39;;;;;;;16.27;9.10;;;;;;;;;;4922851;29;20139;-72
2023/10/28 08:04:06;;;;;;;19.63;9.10;;;;;;;;;;4903972;29;20070;-72
2023/10/28 08:06:32;;;;;;;16.85;8.73;;;;;;;;;;4921274;29;20463;-74
2023/10/28 08:08:58;;;;;;;14.73;8.07;;;;;;;;;;4920428;29;20098;-73
2023/10/28 08:11:25;;;;;;;15.18;7.72;;;;;;;;;;4918946;29;20114;-73
2023/10/28 08:13:54;;;;;;;15.52;8.45;;;10.50;99.90;;;;;;4925422;29;20040;-76
2023/10/28 08:16:21;;;;;;;14.38;8.05;;;;;;;;;;4920781;29;20047;-76
2023/10/28 08:18:47;;;;;;;13.63;7.82;;;;;;;;;;4920493;29;20134;-76
2023/10/28 08:21:16;;;;;;;16.50;7.32;;;;;;;;;;4920554;29;20054;-76
2023/10/28 08:23:43;;;;;;;12.75;7.05;;;;;;;;;;4936364;29;20058;-73
2023/10/28 08:26:10;;;;;;;12.35;7.63;;;;;;;;;;4937196;29;20054;-73
2023/10/28 08:28:37;;;;;;;15.10;7.75;;;;;;;;;;4936114;29;20050;-73
2023/10/28 08:31:03;;;;;;;11.23;7.07;;;;;;;;;;4936521;29;20046;-73
2023/10/28 08:33:30;;;;;;;14.13;7.30;;;;;;;;;;4936635;29;20042;-73
2023/10/28 08:35:57;;;;;;;12.55;7.00;;;;;;;;;;4911340;29;20048;-73
2023/10/28 08:38:23;;;;;;;12.23;6.60;;;;;;;;;;4901952;29;20127;-73
2023/10/28 08:40:50;;;;;;;11.98;6.47;;;;;;;;;;4886277;29;20112;-73
2023/10/28 08:43:17;;;;;;;11.88;6.40;;;10.40;99.90;;;;;;4901865;29;20044;-73
2023/10/28 08:45:45;;;;;;;11.98;6.20;;;;;;;;;;4901693;29;20083;-73
2023/10/28 08:48:15;;;;;;;14.65;6.88;;;;;;;;;;4901593;29;20086;-73
2023/10/28 08:50:47;;;;;;;11.60;6.47;;;10.60;99.90;;;;;;4901781;29;20409;-73
2023/10/28 08:53:15;;;;;;;9.07;7.53;;;;;;;;;;4901776;29;20123;-73
2023/10/28 08:55:41;;;;;;;13.30;6.35;;;;;;;;;;4901497;29;20043;-73
2023/10/28 08:58:07;;;;;;;9.35;6.15;;;;;;;;;;4886246;29;20385;-73
2023/10/28 09:00:35;;;;;;;11.70;6.80;;;10.60;99.90;;;;;;4885845;29;20090;-73
2023/10/28 09:03:04;;;;;;;8.75;5.63;;;;;;;;;;4885963;29;20044;-73
2023/10/28 09:05:30;;;;;;;13.35;6.80;;;;;;;;;;4901629;29;20075;-73
2023/10/28 09:07:56;;;;;;;11.00;6.90;;;;;;;;;;4901387;29;20123;-73
2023/10/28 09:10:23;;;;;;;12.23;6.10;;;;;;;;;;4901377;29;20075;-73
2023/10/28 09:12:53;;;;;;;11.95;6.32;;;;;;;;;;4886244;29;20048;-73
2023/10/28 09:15:20;;;;;;;12.80;6.70;;;;;;;;;;4901158;29;20103;-73
2023/10/28 09:17:46;;;;;;;14.43;6.88;;;;;;;;;;4901263;29;20135;-73
2023/10/28 09:20:12;;;;;;;9.60;6.30;;;;;;;;;;4901122;29;20079;-73
2023/10/28 09:22:42;;;;;;;12.15;6.28;;;10.80;99.90;;;;;;4885561;29;20046;-73
2023/10/28 09:25:14;;;;;;;9.98;6.43;;;10.80;99.90;;;;;;4885647;29;20048;-73
2023/10/28 09:27:41;;;;;;;8.32;6.25;;;;;;;;;;4901294;29;20040;-73
2023/10/28 09:30:08;;;;;;;10.63;6.00;;;;;;;;;;4907360;29;20044;-76
2023/10/28 09:32:34;;;;;;;12.65;6.35;;;11.00;99.90;;;;;;4919666;29;20554;-76
2023/10/28 09:35:07;;;;;;;12.70;6.30;;;;;;;;;;4904079;29;20528;-76
2023/10/28 09:37:35;;;;;;;9.82;6.03;;;11.10;99.90;;;;;;4919972;29;20063;-76
2023/10/28 09:40:05;;;;;;;13.80;6.80;;;10.90;99.90;;;;;;4919510;29;20058;-76
2023/10/28 09:42:34;;;;;;;13.18;5.68;;;11.10;99.90;;;;;;4919849;29;20051;-73
2023/10/28 09:45:00;;;;;;;13.90;6.07;;;;;;;;;;4919793;29;20044;-73
2023/10/28 09:47:43;;;;;;;13.45;6.03;;;11.00;99.90;;;;;;4918844;29;20135;-76
2023/10/28 09:50:11;;;;;;;;;;;11.10;99.90;;;;;;4920113;29;20040;-77
2023/10/28 09:52:41;;;;;;;11.13;5.65;;;11.20;99.90;;;;;;4934394;29;19925;-76
2023/10/28 09:55:11;;;;;;;9.30;5.25;;;;;;;;;;4919717;29;20047;-76
2023/10/28 09:57:39;;;;;;;13.80;5.82;;;;;;;;;;4935264;29;20131;-76
2023/10/28 10:00:09;;;;;;;9.68;5.68;;;;;;;;;;4919257;29;20555;-76
2023/10/28 10:02:56;;;;;;;15.60;6.53;;;11.20;99.90;;;;;;4935308;29;20040;-76
2023/10/28 10:05:32;;;;;;;12.70;5.57;;;11.20;99.90;;;;;;4919254;29;20035;-76
2023/10/28 10:07:58;;;;;;;7.25;5.43;;;;;;;;;;4935051;29;21191;-76
2023/10/28 10:10:25;;;;;;;9.02;5.10;;;;;;;;;;4935213;29;20051;-76
2023/10/28 10:13:01;;;;;;;9.63;5.68;;;11.10;99.90;;;;;;4934995;29;20043;-76
2023/10/28 10:15:33;;;;;;;12.90;5.80;;;11.10;99.90;;;;;;4934836;29;20047;-76
2023/10/28 10:18:04;;;;;;;9.87;6.30;;;;;;;;;;4935206;29;20516;-76
2023/10/28 10:20:33;;;;;;;9.37;5.27;;;10.90;99.90;;;;;;4934875;29;20047;-77
2023/10/28 10:23:02;;;;;;;13.90;5.03;;;11.20;99.90;;;;;;4926371;29;20291;-76
2023/10/28 10:25:32;;;;;;;11.15;5.00;;;11.10;99.90;;;;;;4918990;29;20488;-76
2023/10/28 10:28:15;;;;;;;11.43;5.60;;;11.00;99.90;;;;;;4934814;29;20040;-76
2023/10/28 10:30:42;;;;;;;12.70;5.47;;;11.20;99.90;;;;;;4934567;29;20048;-73
2023/10/28 10:33:08;;;;;;;9.38;5.20;;;;;;;;;;4918890;29;20047;-73
2023/10/28 10:35:36;;;;;;;10.18;5.55;;;;;;;;;;4918894;29;20099;-73
2023/10/28 10:38:09;;;;;;;10.90;5.70;;;11.20;99.90;;;;;;4934642;29;20047;-73
2023/10/28 10:40:41;;;;;;;10.75;5.03;;;11.20;99.90;;;;;;4918604;29;20087;-73
2023/10/28 10:43:11;;;;;;;12.48;5.20;;;11.10;99.90;;;;;;4934475;29;20039;-73
2023/10/28 10:45:37;;;;;;;8.43;5.40;;;;;;;;;;4937247;29;20060;-73
2023/10/28 10:48:04;;;;;;;9.75;5.70;;;;;;;;;;4937949;29;20043;-73
2023/10/28 10:50:31;;;;;;;10.13;5.32;;;;;;;;;;4922218;29;20138;-73
2023/10/28 10:52:58;;;;;;;11.73;5.22;;;;;;;;;;4937559;29;20499;-73
2023/10/28 10:55:24;;;;;;;8.77;4.65;;;;;;;;;;4937945;29;20550;-73
2023/10/28 10:57:51;;;;;;;9.02;4.28;;;;;;;;;;4938136;28;20047;-73
2023/10/28 11:00:18;;;;;;;7.07;4.75;;;;;;;;;;4925982;29;20487;-73
2023/10/28 11:02:45;;;;;;;11.85;5.13;;;;;;;;;;4925993;29;20046;-76
2023/10/28 11:05:12;;;;;;;10.93;4.45;;;;;;;;;;4925864;29;20403;-76
2023/10/28 11:07:38;;;;;;;10.20;4.70;;;;;;;;;;4941712;29;20054;-77
2023/10/28 11:10:08;;;;;;;11.80;4.65;;;;;;;;;;4941708;29;20179;-77
2023/10/28 11:12:34;;;;;;;11.13;4.47;;;;;;;;;;4925547;29;20055;-77
2023/10/28 11:15:00;;;;;;;9.18;4.72;;;;;;;;;;4941341;29;20047;-77
2023/10/28 11:17:26;;;;;;;10.02;4.13;;;;;;;;;;4941381;29;20479;-77
2023/10/28 11:19:53;;;;;;;8.68;4.80;;;;;;;;;;4941145;29;20051;-77
2023/10/28 11:22:19;;;;;;;7.82;4.43;;;11.40;99.90;;;;;;4941159;29;20043;-77
2023/10/28 11:24:45;;;;;;;10.82;5.35;;;;;;;;;;4925214;29;20600;-77
2023/10/28 11:27:22;;;;;;;13.25;4.30;;;;;;;;;;4941016;29;20043;-77
2023/10/28 11:29:50;;;;;;;10.85;4.47;;;11.50;99.90;;;;;;4938185;29;20058;-77
2023/10/28 11:32:16;;;;;;;7.82;4.13;;;;;;;;;;4941198;29;20057;-77
2023/10/28 11:34:44;;;;;;;9.52;4.55;;;12.40;99.90;;;;;;4925214;29;20046;-77
2023/10/28 11:37:10;;;;;;;8.70;4.53;;;11.30;99.90;;;;;;4941191;29;20055;-77
2023/10/28 11:39:38;;;;;;;9.82;4.43;;;11.60;99.90;;;;;;4940678;29;20126;-77
2023/10/28 11:42:15;;;;;;;15.50;6.15;;;11.70;99.90;;;;;;4940995;29;20042;-77
2023/10/28 11:44:46;;;;;;;9.07;4.07;;;11.60;99.90;;;;;;4924687;29;20452;-77
2023/10/28 11:47:12;;;;;;;11.02;4.25;;;;;;;;;;4940401;29;20055;-77
2023/10/28 11:49:38;;;;;;;8.48;4.43;;;;;;;;;;4940538;29;20050;-77
2023/10/28 11:52:04;;;;;;;10.82;4.40;;;;;;;;;;4940756;29;20130;-77
2023/10/28 11:54:30;;;;;;;9.98;4.30;;;;;;;;;;4940684;29;20260;-77
2023/10/28 11:56:57;;;;;;;8.05;4.20;;;;;;;;;;4940465;29;20182;-73
2023/10/28 11:59:23;;;;;;;8.05;3.88;;;;;;;;;;4940318;29;20050;-73
2023/10/28 12:01:50;;;;;;;10.48;4.20;;;;;;;;;;4940349;29;20043;-73
2023/10/28 12:04:17;;;;;;;9.98;4.43;;;;;;;;;;4940374;29;20051;-74
2023/10/28 12:06:43;;;;;;;12.35;4.40;;;;;;;;;;4909071;29;20476;-73
2023/10/28 12:09:12;;;;;;;10.38;3.97;;;;;;;;;;4924352;28;20043;-73
2023/10/28 12:11:38;;;;;;;10.57;4.30;;;;;;;;;;4939630;29;20555;-73
2023/10/28 12:14:07;;;;;;;10.27;4.05;;;11.90;99.90;;;;;;4939980;29;20512;-73
2023/10/28 12:16:40;;;;;;;9.50;4.10;;;;;;;;;;4940046;29;20506;-73
2023/10/28 12:19:06;;;;;;;6.75;4.00;;;11.80;99.90;;;;;;4940094;29;20373;-73
2023/10/28 12:21:37;;;;;;;7.70;4.00;;;12.00;99.90;;;;;;4940383;29;20130;-73
2023/10/28 12:24:03;;;;;;;11.30;4.30;;;;;;;;;;4933788;29;20050;-73
2023/10/28 12:26:29;;;;;;;9.35;3.85;;;;;;;;;;4923156;29;20047;-73
2023/10/28 12:28:56;;;;;;;7.45;3.85;;;12.00;99.90;;;;;;4921007;29;20044;-73
2023/10/28 12:31:23;;;;;;;14.35;4.38;;;;;;;;;;4921035;29;20090;-73
2023/10/28 12:33:50;;;;;;;9.82;3.58;;;;;;;;;;4904945;29;20044;-73
2023/10/28 12:36:16;;;;;;;8.93;3.65;;;;;;;;;;4905278;29;20337;-73
2023/10/28 12:38:44;;;;;;;8.82;4.10;;;;;;;;;;4920524;29;20055;-73
2023/10/28 12:41:10;;;;;;;6.55;4.03;;;;;;;;;;4920812;29;20396;-73
2023/10/28 12:43:36;;;;;;;6.43;3.83;;;;;;;;;;4920534;29;20043;-73
2023/10/28 12:46:03;;;;;;;8.85;3.95;;;;;;;;;;4920331;29;20062;-73
2023/10/28 12:48:30;;;;;;;10.38;4.03;;;;;;;;;;4920417;29;20051;-73
2023/10/28 12:50:59;;;;;;;10.68;4.45;;;12.20;99.90;;;;;;4920385;29;20044;-73
2023/10/28 12:53:25;;;;;;;7.28;4.05;;;;;;;;;;4889695;29;20190;-73
2023/10/28 12:55:52;;;;;;;12.48;4.35;;;;;;;;;;4920621;29;20048;-76
2023/10/28 12:58:18;;;;;;;9.35;4.25;;;;;;;;;;4904708;29;20043;-76
2023/10/28 13:00:44;;;;;;;12.18;5.25;;;;;;;;;;4904553;29;20036;-77
2023/10/28 13:03:10;;;;;;;8.07;3.80;;;;;;;;;;4920247;29;20052;-77
2023/10/28 13:05:36;;;;;;;12.52;4.30;;;;;;;;;;4920462;29;20039;-76
2023/10/28 13:08:03;;;;;;;11.07;4.10;;;;;;;;;;4920226;29;20094;-77
2023/10/28 13:10:29;;;;;;;9.43;3.88;;;;;;;;;;4904574;29;20039;-77
2023/10/28 13:12:55;;;;;;;7.18;3.85;;;;;;;;;;4920040;29;20050;-77
2023/10/28 13:15:21;;;;;;;9.63;4.10;;;12.40;99.90;;;;;;4920150;29;20054;-77
2023/10/28 13:17:48;;;;;;;7.70;4.43;;;;;;;;;;4919926;29;20131;-77
2023/10/28 13:20:14;;;;;;;12.13;3.88;;;;;;;;;;4919873;29;20048;-77
2023/10/28 13:22:43;;;;;;;8.95;3.83;;;;;;;;;;4903372;29;20044;-77
2023/10/28 13:25:10;;;;;;;10.32;3.70;;;;;;;;;;4919806;29;20043;-77
2023/10/28 13:27:37;;;;;;;9.25;3.50;;;;;;;;;;4919797;29;20047;-77
2023/10/28 13:30:05;;;;;;;8.82;3.58;;;12.80;99.90;;;;;;4919770;29;20504;-77
2023/10/28 13:32:31;;;;;;;10.75;3.50;;;;;;;;;;4919586;29;20151;-77
2023/10/28 13:34:57;;;;;;;10.75;3.53;;;;;;;;;;4919555;29;20518;-77
2023/10/28 13:37:24;;;;;;;8.35;3.55;;;;;;;;;;4919523;29;20052;-77
2023/10/28 13:39:50;;;;;;;10.57;3.45;;;;;;;;;;4903919;29;20043;-77
2023/10/28 13:42:16;;;;;;;12.20;3.45;;;;;;;;;;4919456;29;20039;-77
2023/10/28 13:44:42;;;;;;;8.20;3.30;;;;;;;;;;4919471;29;20039;-77
2023/10/28 13:47:08;;;;;;;8.73;3.58;;;;;;;;;;4919340;29;20094;-77
2023/10/28 13:49:34;;;;;;;7.35;3.40;;;;;;;;;;4919681;29;20047;-77
2023/10/28 13:52:01;;;;;;;9.60;3.50;;;;;;;;;;4919293;29;20393;-77
2023/10/28 13:54:28;;;;;;;5.07;3.20;;;12.50;99.90;;;;;;4919731;29;20039;-77
2023/10/28 13:56:54;;;;;;;8.77;3.55;;;;;;;;;;4919176;29;20051;-77
2023/10/28 13:59:20;;;;;;;8.35;4.00;;;;;;;;;;4919187;29;20098;-76
2023/10/28 14:01:46;;;;;;;7.65;3.45;;;;;;;;;;4919302;29;20480;-77
2023/10/28 14:04:12;;;;;;;10.82;4.15;;;;;;;;;;4903548;29;20087;-76
2023/10/28 14:06:39;;;;;;;10.13;3.40;;;;;;;;;;4919565;29;20036;-76
2023/10/28 14:09:05;;;;;;;5.28;2.92;;;;;;;;;;4919337;29;20106;-76